Impacts METAR Board
IDs:

KMEM - Memphis Intl, TN, US

Updated at: 2200 UTC 15 Oct 2018
Potential Impact None Slight Moderate High
Time 15/10Z 15/11Z 15/12Z 15/13Z 15/14Z 15/15Z 15/16Z 15/17Z 15/18Z 15/19Z 15/20Z 15/21Z 15/22Z
Temp66 66 63 61 60 59 58 59 57 57 55 52 53
Dewpt66 66 63 61 59 58 56 57 54 53 52 50 49
Altim30.00 30.04 30.07 30.09 30.11 30.17 30.19 30.20 30.19 30.18 30.22 30.24 30.23
VIS10 9 8 10 6 10 10 10 10 10 10 10 10
CIG16 4 6 7 5 8 9 9 10 10 11 10 100
CoverOVCOVCOVCOVCOVCOVCOVCOVCOVCOVCOVCOVCOVC
FltCatMVFRLIFRIFRIFRIFRIFRIFRIFRMVFRMVFRMVFRMVFRVFR
WX--RA-RA-RA-RA BR-----DZ----------
WDir3603303203501034030360201035036040
WSpd5 7 6 12 10 10 13 11 14 13 12 11 11
WGst-- -- -- 15 -- 16 -- -- -- -- -- 19 --
Raw hourly METARs
KMEM 150954Z 36005KT 10SM FEW005 BKN016 OVC022 19/19 A3000 RMK AO2 LTG DSNT N AND NW RAB41E50 SLP157 P0000 T01890189
KMEM 151054Z 33007KT 9SM RA BKN004 OVC014 19/19 A3004 RMK AO2 LTG DSNT SW RAB25 PRESRR SLP168 P0002 T01890189
KMEM 151154Z 32006KT 8SM -RA BKN006 BKN055 OVC080 17/17 A3007 RMK AO2 SLP181 P0040 60045 70068 T01720172 10200 20172 53030
KMEM 151254Z 35012G15KT 10SM -RA OVC007 16/16 A3009 RMK AO2 LTG DSNT W CIG 005V009 SLP187 P0007 T01610161
KMEM 151354Z 01010KT 6SM -RA BR BKN005 OVC009 16/15 A3011 RMK AO2 SLP194 CIG 005V009 P0001 T01560150
KMEM 151454Z 34010G16KT 10SM BKN008 OVC015 15/14 A3017 RMK AO2 RAE1358 PRESRR SLP213 CIG 006V010 P0000 60008 T01500144 53032 $
KMEM 151554Z 03013KT 10SM BKN009 BKN015 OVC026 14/13 A3019 RMK AO2 RAB33E43 SLP222 VCSH P0000 T01440133 $
KMEM 151654Z 36011KT 10SM -DZ BKN009 OVC030 15/14 A3020 RMK AO2 RAB15E43DZB48 SLP225 P0000 T01500139 $
KMEM 151754Z 02014KT 10SM BKN010 OVC015 14/12 A3019 RMK AO2 DZE1657 SLP222 CIG 008V012 VCSH P0000 60008 T01390122 10172 20139 50009 $
KMEM 151854Z 01013KT 10SM OVC010 14/12 A3018 RMK AO2 SLP219 CIG 008V012 T01390117 $
KMEM 151954Z 35012KT 10SM OVC011 13/11 A3022 RMK AO2 SLP230 T01280111 $
KMEM 152054Z 36011G19KT 10SM OVC010 11/10 A3024 RMK AO2 SLP239 T01110100 53016 $
KMEM 152154Z 04011KT 10SM SCT009 OVC100 12/09 A3023 RMK AO2 SLP233 T01170094 $



Page loaded:  22:17 UTC  |   03:17 PM Pacific  |   04:17 PM Mountain  |   05:17 PM Central  |   06:17 PM Eastern

 

ADVISORIES

FORECASTS

FORECASTS

OBSERVATIONS

USER TOOLS

ABOUT US